Time;durP1;ratioP1;P1;durP2;ratioP2;P2;SDS_P1;SDS_P2;PMS_P1;PMS_P2;Temp;Humidity;BMP_temperature;BMP_pressure;BME280_temperature;BME280_humidity;BME280_pressure;Samples;Min_cycle;Max_cycle;Signal;HPM_P1;HPM_P2
2023/06/25 00:00:21;;;;;;;4.90;4.32;;;27.70;46.90;28.10;101206.00;;;;5016695;28;20259;-47
2023/06/25 00:02:47;;;;;;;4.30;3.90;;;27.60;47.00;28.10;101208.00;;;;5010533;28;20259;-46
2023/06/25 00:05:13;;;;;;;4.80;4.40;;;27.60;47.00;28.00;101210.00;;;;5010525;28;20250;-47
2023/06/25 00:07:39;;;;;;;4.45;4.05;;;27.60;47.00;28.00;101205.00;;;;5010588;28;20179;-46
2023/06/25 00:10:05;;;;;;;4.65;4.25;;;27.60;47.10;28.00;101193.00;;;;5010700;28;20246;-46
2023/06/25 00:12:32;;;;;;;4.20;3.90;;;27.50;47.10;27.90;101189.00;;;;5010256;28;20773;-47
2023/06/25 00:14:58;;;;;;;4.72;4.28;;;27.50;47.10;27.90;101185.00;;;;5010070;28;20207;-47
2023/06/25 00:17:27;;;;;;;4.72;4.22;;;27.50;47.30;27.90;101190.00;;;;4992871;28;20230;-46
2023/06/25 00:19:56;;;;;;;4.60;4.30;;;27.50;47.30;27.80;101191.00;;;;5010394;28;20641;-47
2023/06/25 00:22:23;;;;;;;4.75;4.35;;;27.40;47.40;27.80;101192.00;;;;5012701;28;20250;-47
2023/06/25 00:24:49;;;;;;;4.65;4.05;;;27.40;47.50;27.80;101185.00;;;;5016912;28;20250;-46
2023/06/25 00:27:15;;;;;;;4.70;4.30;;;27.40;47.50;27.70;101190.00;;;;5016774;28;20172;-46
2023/06/25 00:29:40;;;;;;;4.90;4.50;;;27.30;47.60;27.70;101191.00;;;;5020283;28;20186;-54
2023/06/25 00:32:07;;;;;;;4.70;4.13;;;27.30;47.70;27.70;101182.00;;;;5013932;28;20810;-46
2023/06/25 00:34:40;;;;;;;4.97;4.50;;;27.20;47.60;27.60;101181.00;;;;4992970;28;20662;-46
2023/06/25 00:37:16;;;;;;;4.88;4.47;;;27.20;47.70;27.60;101180.00;;;;5010353;28;20187;-45
2023/06/25 00:39:45;;;;;;;4.90;4.40;;;27.20;47.80;27.60;101184.00;;;;5012346;28;20190;-47
2023/06/25 00:42:12;;;;;;;4.60;4.20;;;27.20;47.80;27.50;101175.00;;;;4992646;28;20251;-45
2023/06/25 00:44:40;;;;;;;4.82;4.32;;;27.20;47.80;27.50;101187.00;;;;5009768;28;20692;-46
2023/06/25 00:47:12;;;;;;;5.28;4.40;;;27.10;47.90;27.50;101178.00;;;;5010084;28;20219;-46
2023/06/25 00:49:40;;;;;;;5.18;4.25;;;27.20;48.10;27.50;101186.00;;;;4992564;28;20211;-46
2023/06/25 00:52:08;;;;;;;4.50;4.10;;;27.10;48.10;27.50;101176.00;;;;5009922;28;20720;-47
2023/06/25 00:54:40;;;;;;;5.22;4.70;;;27.10;48.20;27.50;101175.00;;;;4976607;28;20194;-47
2023/06/25 00:57:06;;;;;;;4.80;4.30;;;27.10;48.10;27.40;101183.00;;;;5009608;28;20172;-46
2023/06/25 00:59:34;;;;;;;5.03;4.60;;;27.00;48.10;27.40;101185.00;;;;4991931;28;20176;-46
2023/06/25 01:02:16;;;;;;;4.50;4.10;;;27.10;48.30;27.40;101179.00;;;;5009205;28;20172;-46
2023/06/25 01:04:57;;;;;;;4.65;4.22;;;27.00;48.20;27.30;101183.00;;;;4993657;28;20283;-46
2023/06/25 01:07:25;;;;;;;4.60;4.20;;;27.00;48.40;27.30;101172.00;;;;4978113;28;20722;-47
2023/06/25 01:09:50;;;;;;;5.47;4.70;;;26.90;48.40;27.30;101172.00;;;;4976464;28;20247;-46
2023/06/25 01:12:16;;;;;;;4.90;4.50;;;27.00;48.50;27.30;101171.00;;;;4992083;28;20171;-46
2023/06/25 01:14:42;;;;;;;5.00;4.50;;;27.00;48.60;27.30;101168.00;;;;5008886;28;20206;-44
2023/06/25 01:17:08;;;;;;;4.93;4.45;;;26.90;48.70;27.30;101173.00;;;;5009737;28;20250;-47
2023/06/25 01:19:35;;;;;;;4.95;4.15;;;26.90;48.70;27.30;101173.00;;;;5009658;28;20164;-46
2023/06/25 01:22:03;;;;;;;4.60;4.20;;;26.90;48.80;27.20;101169.00;;;;4992211;28;20679;-45
2023/06/25 01:24:29;;;;;;;4.72;4.32;;;26.90;48.90;27.20;101166.00;;;;5009386;28;20207;-47
2023/06/25 01:26:59;;;;;;;4.80;4.40;;;26.90;48.80;27.20;101165.00;;;;5009188;28;20211;-47
2023/06/25 01:29:26;;;;;;;4.90;4.50;;;26.90;48.90;27.20;101162.00;;;;5008969;28;20286;-47
2023/06/25 01:31:53;;;;;;;5.57;4.35;;;26.90;49.00;27.20;101165.00;;;;5008971;28;20242;-46
2023/06/25 01:34:22;;;;;;;4.90;4.50;;;26.80;49.10;27.10;101155.00;;;;5008532;28;20199;-46
2023/06/25 01:36:51;;;;;;;4.75;4.30;;;26.80;49.10;27.10;101156.00;;;;5009101;28;20271;-46
2023/06/25 01:39:20;;;;;;;5.28;4.78;;;26.80;49.30;27.10;101158.00;;;;5008936;28;20183;-46
2023/06/25 01:41:46;;;;;;;5.00;4.60;;;26.80;49.30;27.10;101154.00;;;;5010437;28;20168;-46
2023/06/25 01:44:18;;;;;;;6.22;4.55;;;26.80;49.30;27.10;101157.00;;;;5018083;28;20193;-51
2023/06/25 01:46:44;;;;;;;4.82;4.43;;;26.80;49.50;27.00;101154.00;;;;5009674;28;20215;-47
2023/06/25 01:49:10;;;;;;;4.45;4.05;;;26.80;49.50;27.00;101151.00;;;;5009350;28;20168;-47
2023/06/25 01:51:37;;;;;;;5.13;4.63;;;26.70;49.40;27.00;101143.00;;;;5008850;28;20234;-46
2023/06/25 01:54:03;;;;;;;5.18;4.68;;;26.70;49.60;27.00;101144.00;;;;5009397;28;20192;-45
2023/06/25 01:56:29;;;;;;;4.68;4.28;;;26.70;49.70;27.00;101144.00;;;;5011766;28;20567;-45
2023/06/25 01:58:54;;;;;;;4.88;4.47;;;26.70;49.70;26.90;101125.00;;;;5019084;28;20195;-46
2023/06/25 02:01:20;;;;;;;5.32;4.82;;;26.70;49.80;26.90;101132.00;;;;4992514;28;20179;-47
2023/06/25 02:03:46;;;;;;;4.70;4.30;;;26.60;49.80;26.90;101131.00;;;;5008616;28;20203;-46
2023/06/25 02:06:12;;;;;;;4.97;4.22;;;26.60;49.90;26.90;101135.00;;;;5008551;28;20230;-47
2023/06/25 02:08:38;;;;;;;4.78;4.38;;;26.60;49.90;26.80;101131.00;;;;4990885;28;20665;-47
2023/06/25 02:11:06;;;;;;;4.80;4.32;;;26.60;50.00;26.80;101119.00;;;;5008746;28;20314;-46
2023/06/25 02:13:33;;;;;;;4.68;4.28;;;26.60;50.10;26.80;101115.00;;;;5008339;28;20229;-46
2023/06/25 02:15:59;;;;;;;5.07;4.60;;;26.60;50.20;26.80;101111.00;;;;5008574;28;20187;-47
2023/06/25 02:18:24;;;;;;;4.85;4.45;;;26.50;50.30;26.80;101117.00;;;;5007966;28;20172;-46
2023/06/25 02:20:50;;;;;;;4.90;4.50;;;26.50;50.30;26.70;101120.00;;;;5008646;28;20178;-47
2023/06/25 02:23:16;;;;;;;4.60;4.20;;;26.50;50.30;26.70;101115.00;;;;5008169;28;20546;-46
2023/06/25 02:25:42;;;;;;;4.90;4.50;;;26.40;50.20;26.70;101117.00;;;;5008545;28;20200;-46
2023/06/25 02:28:07;;;;;;;4.53;4.20;;;26.50;50.40;26.70;101108.00;;;;5008508;28;20187;-47
2023/06/25 02:30:33;;;;;;;5.05;4.65;;;26.40;50.50;26.60;101114.00;;;;5008429;28;20172;-46
2023/06/25 02:32:59;;;;;;;5.03;4.55;;;26.40;50.50;26.60;101117.00;;;;5008211;28;20175;-46
2023/06/25 02:35:24;;;;;;;4.90;4.45;;;26.40;50.50;26.60;101115.00;;;;5008288;28;20265;-45
2023/06/25 02:37:50;;;;;;;5.13;4.72;;;26.40;50.60;26.60;101109.00;;;;5008187;28;20171;-46
2023/06/25 02:40:16;;;;;;;4.97;4.57;;;26.40;50.70;26.50;101107.00;;;;5011323;28;20197;-45
2023/06/25 02:42:41;;;;;;;4.88;4.45;;;26.30;50.70;26.50;101103.00;;;;5012939;28;20172;-45
2023/06/25 02:45:08;;;;;;;4.88;4.43;;;26.30;50.70;26.50;101105.00;;;;5007037;28;20234;-46
2023/06/25 02:47:33;;;;;;;4.60;4.20;;;26.30;50.70;26.50;101101.00;;;;5010629;28;20278;-46
2023/06/25 02:49:59;;;;;;;5.70;4.60;;;26.30;50.70;26.50;101096.00;;;;5012281;28;20805;-46
2023/06/25 02:52:25;;;;;;;4.93;4.53;;;26.30;50.80;26.40;101103.00;;;;5012108;28;20171;-46
2023/06/25 02:54:50;;;;;;;4.85;4.45;;;26.20;50.90;26.40;101104.00;;;;5011666;28;20188;-46
2023/06/25 02:57:16;;;;;;;5.00;4.60;;;26.20;50.90;26.40;101100.00;;;;5011905;28;20268;-46
2023/06/25 02:59:42;;;;;;;5.10;4.70;;;26.20;50.90;26.30;101104.00;;;;5011775;28;20163;-45
2023/06/25 03:02:08;;;;;;;5.10;4.60;;;26.20;51.00;26.30;101092.00;;;;5012994;28;20235;-47
2023/06/25 03:04:33;;;;;;;5.55;4.60;;;26.20;51.00;26.30;101104.00;;;;5013017;28;20230;-46
2023/06/25 03:06:59;;;;;;;6.80;4.72;;;26.10;51.00;26.30;101096.00;;;;5014195;28;20195;-45
2023/06/25 03:09:25;;;;;;;5.45;4.80;;;26.10;51.00;26.30;101094.00;;;;5014298;28;20548;-46
2023/06/25 03:11:50;;;;;;;5.72;4.25;;;26.10;51.20;26.20;101099.00;;;;5013425;28;20665;-46
2023/06/25 03:14:16;;;;;;;5.03;4.43;;;26.10;51.20;26.20;101103.00;;;;5015071;28;20191;-46
2023/06/25 03:16:42;;;;;;;4.80;4.30;;;26.00;51.20;26.20;101093.00;;;;5013303;28;20179;-46
2023/06/25 03:19:08;;;;;;;5.25;4.78;;;26.00;51.20;26.20;101100.00;;;;5012933;28;20176;-46
2023/06/25 03:21:33;;;;;;;5.38;4.88;;;26.00;51.30;26.10;101104.00;;;;5012770;28;20638;-46
2023/06/25 03:23:59;;;;;;;5.25;4.75;;;26.00;51.30;26.10;101104.00;;;;5012481;28;20192;-45
2023/06/25 03:26:25;;;;;;;5.00;4.60;;;26.00;51.30;26.10;101107.00;;;;5012732;28;20199;-46
2023/06/25 03:28:53;;;;;;;5.00;4.50;;;25.90;51.30;26.10;101093.00;;;;5012372;28;20278;-45
2023/06/25 03:31:19;;;;;;;4.78;4.28;;;25.90;51.40;26.10;101096.00;;;;5012273;28;20498;-45
2023/06/25 03:33:45;;;;;;;6.00;4.60;;;25.90;51.50;26.00;101093.00;;;;5012084;28;20168;-45
2023/06/25 03:36:10;;;;;;;5.22;4.72;;;25.90;51.60;26.00;101093.00;;;;5012283;28;20612;-45
2023/06/25 03:38:36;;;;;;;5.28;4.78;;;25.90;51.70;26.00;101089.00;;;;5012379;28;20223;-46
2023/06/25 03:41:02;;;;;;;7.15;4.72;;;25.80;51.50;26.00;101088.00;;;;5012879;28;20172;-47
2023/06/25 03:43:27;;;;;;;5.68;4.45;;;25.80;51.60;25.90;101079.00;;;;5015601;28;20183;-43
2023/06/25 03:45:53;;;;;;;5.47;4.93;;;25.80;51.70;25.90;101082.00;;;;5017811;28;20583;-50
2023/06/25 03:48:19;;;;;;;4.80;4.40;;;25.80;51.70;25.90;101083.00;;;;5018343;28;20627;-55
2023/06/25 03:50:45;;;;;;;5.18;4.70;;;25.80;51.70;25.90;101090.00;;;;5013529;28;20178;-49
2023/06/25 03:53:10;;;;;;;4.88;4.47;;;25.80;51.70;25.90;101099.00;;;;5011908;28;20171;-48
2023/06/25 03:55:36;;;;;;;5.45;4.95;;;25.70;51.60;25.90;101086.00;;;;5015353;28;20203;-49
2023/06/25 03:58:02;;;;;;;4.40;4.10;;;25.70;51.60;25.80;101086.00;;;;5021872;28;20194;-48
2023/06/25 04:00:28;;;;;;;5.18;4.78;;;25.70;51.60;25.80;101092.00;;;;5010688;28;20184;-47
2023/06/25 04:02:53;;;;;;;4.90;4.50;;;25.70;51.80;25.80;101082.00;;;;5009991;28;20242;-49
2023/06/25 04:05:19;;;;;;;5.95;4.80;;;25.70;51.80;25.80;101090.00;;;;5009536;28;20574;-48
2023/06/25 04:07:45;;;;;;;4.97;4.57;;;25.70;51.80;25.80;101090.00;;;;5011392;28;20172;-47
2023/06/25 04:10:10;;;;;;;7.72;5.00;;;25.60;51.70;25.70;101094.00;;;;5012039;28;20179;-48
2023/06/25 04:12:36;;;;;;;5.35;4.82;;;25.60;52.10;25.70;101081.00;;;;5010872;28;20172;-48
2023/06/25 04:15:02;;;;;;;5.20;4.72;;;25.60;51.80;25.70;101092.00;;;;5010934;28;20199;-48
2023/06/25 04:17:28;;;;;;;5.25;4.72;;;25.60;51.90;25.70;101086.00;;;;5011817;28;20183;-47
2023/06/25 04:19:53;;;;;;;4.95;4.53;;;25.60;51.90;25.70;101092.00;;;;5011585;28;20607;-48
2023/06/25 04:22:19;;;;;;;5.43;4.60;;;25.60;51.90;25.70;101100.00;;;;5011623;28;20172;-48
2023/06/25 04:24:45;;;;;;;6.35;4.97;;;25.60;52.00;25.70;101086.00;;;;5010964;28;20571;-48
2023/06/25 04:27:11;;;;;;;4.93;4.53;;;25.60;52.00;25.70;101090.00;;;;5012572;28;20645;-47
2023/06/25 04:29:36;;;;;;;4.90;4.50;;;25.50;52.00;25.60;101090.00;;;;5012791;28;20665;-51
2023/06/25 04:32:03;;;;;;;5.32;4.78;;;25.50;52.10;25.60;101082.00;;;;5011749;28;20167;-48
2023/06/25 04:34:29;;;;;;;5.47;4.97;;;25.50;52.20;25.60;101088.00;;;;5010538;28;20681;-48
2023/06/25 04:36:55;;;;;;;5.85;4.70;;;25.50;52.40;25.60;101090.00;;;;5011011;28;20180;-48
2023/06/25 04:39:20;;;;;;;4.93;4.53;;;25.50;52.40;25.60;101086.00;;;;4993439;28;20184;-48
2023/06/25 04:41:46;;;;;;;4.68;4.28;;;25.50;52.40;25.60;101062.00;;;;5011055;28;20183;-48
2023/06/25 04:44:12;;;;;;;6.57;4.82;;;25.50;52.50;25.60;101092.00;;;;4992615;28;20192;-48
2023/06/25 04:46:38;;;;;;;4.90;4.47;;;25.40;52.30;25.60;101086.00;;;;5010766;28;20203;-48
2023/06/25 04:49:03;;;;;;;5.10;4.57;;;25.40;52.30;25.60;101087.00;;;;5011061;28;20176;-48
2023/06/25 04:51:29;;;;;;;5.05;4.60;;;25.50;52.60;25.60;101094.00;;;;5011065;28;20228;-48
2023/06/25 04:53:55;;;;;;;5.07;4.68;;;25.50;52.60;25.60;101099.00;;;;5010662;28;20191;-47
2023/06/25 04:56:20;;;;;;;5.70;5.05;;;25.40;52.50;25.50;101078.00;;;;5010969;28;20180;-47
2023/06/25 04:58:46;;;;;;;5.50;5.00;;;25.40;52.40;25.50;101078.00;;;;5007874;28;20187;-48
2023/06/25 05:01:12;;;;;;;5.07;4.68;;;25.40;52.70;25.50;101084.00;;;;4999903;28;20211;-48
2023/06/25 05:03:38;;;;;;;5.25;4.78;;;25.40;52.70;25.50;101085.00;;;;4990179;28;20172;-49
2023/06/25 05:06:04;;;;;;;7.28;4.53;;;25.40;52.60;25.50;101088.00;;;;4990965;28;20208;-48
2023/06/25 05:08:30;;;;;;;4.88;4.47;;;25.40;52.90;25.50;101089.00;;;;4990574;28;20763;-48
2023/06/25 05:10:55;;;;;;;5.93;5.18;;;25.40;52.80;25.50;101090.00;;;;4990272;28;20168;-48
2023/06/25 05:13:21;;;;;;;5.30;4.80;;;25.40;52.90;25.50;101089.00;;;;4989973;28;20176;-48
2023/06/25 05:15:47;;;;;;;5.18;4.78;;;25.30;52.80;25.50;101095.00;;;;4990523;28;20658;-48
2023/06/25 05:18:13;;;;;;;5.60;5.10;;;25.40;52.90;25.50;101095.00;;;;4990672;28;20207;-48
2023/06/25 05:20:38;;;;;;;5.60;5.10;;;25.40;52.90;25.50;101103.00;;;;4990540;28;20232;-49
2023/06/25 05:23:09;;;;;;;4.95;4.55;;;25.30;52.80;25.50;101089.00;;;;4990608;28;20176;-48
2023/06/25 05:25:35;;;;;;;5.20;4.78;;;25.40;52.90;25.50;101093.00;;;;4990318;28;20206;-48
2023/06/25 05:28:03;;;;;;;4.80;4.40;;;25.30;52.80;25.50;101092.00;;;;4989983;28;20180;-48
2023/06/25 05:30:30;;;;;;;5.25;4.75;;;25.30;52.80;25.50;101100.00;;;;4990372;28;20188;-48
2023/06/25 05:32:56;;;;;;;5.00;4.60;;;25.30;53.00;25.50;101101.00;;;;4990429;28;20459;-50
2023/06/25 05:35:22;;;;;;;4.90;4.50;;;25.30;53.20;25.50;101095.00;;;;4972818;28;20193;-48
2023/06/25 05:37:49;;;;;;;5.03;4.63;;;25.30;53.20;25.50;101099.00;;;;4972959;28;20183;-49
2023/06/25 05:40:14;;;;;;;5.75;5.18;;;25.30;53.30;25.50;101087.00;;;;4990903;28;20176;-49
2023/06/25 05:42:40;;;;;;;5.57;5.07;;;25.30;53.20;25.50;101091.00;;;;4997101;28;20231;-49
2023/06/25 05:45:08;;;;;;;5.30;4.80;;;25.30;53.50;25.50;101095.00;;;;4990194;28;20207;-48
2023/06/25 05:47:33;;;;;;;5.35;4.90;;;25.30;53.60;25.50;101087.00;;;;4991027;28;20172;-48
2023/06/25 05:49:59;;;;;;;6.00;5.50;;;25.30;53.70;25.50;101091.00;;;;4991138;28;20248;-49
2023/06/25 05:52:25;;;;;;;5.05;4.65;;;25.30;54.00;25.50;101090.00;;;;4992037;28;20211;-49
2023/06/25 05:54:51;;;;;;;5.85;5.35;;;25.30;54.20;25.50;101093.00;;;;4994961;28;20188;-49
2023/06/25 05:57:16;;;;;;;5.72;5.22;;;25.30;54.60;25.50;101090.00;;;;4998295;28;20176;-48
2023/06/25 05:59:42;;;;;;;5.97;5.38;;;25.30;54.70;25.50;101095.00;;;;4995042;28;20180;-50
2023/06/25 06:02:08;;;;;;;5.70;5.20;;;25.20;54.50;25.50;101101.00;;;;4994145;28;20207;-47
2023/06/25 06:04:36;;;;;;;5.70;5.20;;;25.20;55.10;25.50;101099.00;;;;4993265;28;20231;-49
2023/06/25 06:07:02;;;;;;;5.57;4.85;;;25.20;54.40;25.40;101102.00;;;;4974868;28;20196;-48
2023/06/25 06:09:29;;;;;;;5.45;5.05;;;25.20;54.40;25.40;101091.00;;;;4990376;28;20533;-49
2023/06/25 06:11:55;;;;;;;5.43;4.93;;;25.20;54.40;25.40;101083.00;;;;4990193;28;20648;-49
2023/06/25 06:14:21;;;;;;;4.80;4.50;;;25.10;54.30;25.40;101092.00;;;;4989125;28;20268;-50
2023/06/25 06:16:46;;;;;;;5.40;4.90;;;25.20;54.40;25.40;101089.00;;;;4989733;28;20643;-48
2023/06/25 06:19:12;;;;;;;5.22;4.72;;;25.20;54.50;25.40;101090.00;;;;4990056;28;20761;-50
2023/06/25 06:21:38;;;;;;;5.70;5.30;;;25.20;54.60;25.40;101089.00;;;;4989463;28;20191;-49
2023/06/25 06:24:04;;;;;;;5.28;4.88;;;25.20;54.80;25.40;101088.00;;;;4989464;28;20198;-49
2023/06/25 06:26:29;;;;;;;5.60;5.20;;;25.20;54.80;25.30;101089.00;;;;4989415;28;20264;-48
2023/06/25 06:28:55;;;;;;;5.43;5.03;;;25.10;54.80;25.40;101095.00;;;;4970663;28;20262;-49
2023/06/25 06:31:21;;;;;;;5.50;5.10;;;25.10;55.00;25.40;101094.00;;;;4989934;28;20179;-50
2023/06/25 06:33:47;;;;;;;5.47;5.00;;;25.10;55.00;25.40;101086.00;;;;4989589;28;20252;-48
2023/06/25 06:36:12;;;;;;;5.20;4.80;;;25.00;55.00;25.30;101087.00;;;;4990989;28;20175;-48
2023/06/25 06:38:39;;;;;;;5.88;5.38;;;25.10;55.10;25.30;101090.00;;;;4990526;28;20176;-48
2023/06/25 06:41:04;;;;;;;5.40;5.00;;;25.10;55.10;25.30;101092.00;;;;4989559;28;20591;-48
2023/06/25 06:43:31;;;;;;;5.60;5.20;;;25.00;55.00;25.30;101090.00;;;;4989159;28;20180;-49
2023/06/25 06:45:57;;;;;;;5.63;5.20;;;25.00;55.20;25.30;101078.00;;;;4989093;28;20199;-49
2023/06/25 06:48:22;;;;;;;5.38;4.97;;;25.00;55.50;25.40;101083.00;;;;4988681;28;20232;-48
2023/06/25 06:50:48;;;;;;;5.10;4.70;;;25.10;55.50;25.40;101079.00;;;;4986915;28;21074;-49
2023/06/25 06:53:14;;;;;;;5.30;4.90;;;25.00;55.30;25.50;101071.00;;;;4992352;28;20203;-48
2023/06/25 06:55:39;;;;;;;5.65;5.20;;;25.00;55.50;25.50;101076.00;;;;5011855;28;20206;-48
2023/06/25 06:58:05;;;;;;;5.47;5.07;;;25.00;55.50;25.50;101078.00;;;;5010039;28;20246;-51
2023/06/25 07:00:31;;;;;;;5.47;5.07;;;25.00;55.60;25.50;101076.00;;;;4998161;28;20181;-49
2023/06/25 07:02:59;;;;;;;4.97;4.47;;;25.10;55.60;25.60;101070.00;;;;4994026;28;20168;-49
2023/06/25 07:05:24;;;;;;;5.30;4.90;;;25.10;55.60;25.60;101081.00;;;;4997983;28;20204;-48
2023/06/25 07:07:50;;;;;;;5.70;5.20;;;25.10;55.60;25.60;101070.00;;;;4989411;28;20541;-48
2023/06/25 07:10:16;;;;;;;5.55;5.15;;;25.10;55.80;25.60;101076.00;;;;4989095;28;20794;-49
2023/06/25 07:12:42;;;;;;;5.55;5.10;;;25.00;55.70;25.60;101075.00;;;;4994061;28;20237;-48
2023/06/25 07:15:08;;;;;;;5.65;5.15;;;25.10;55.60;25.60;101065.00;;;;4991385;28;20200;-48
2023/06/25 07:17:33;;;;;;;6.10;5.60;;;25.10;55.60;25.60;101075.00;;;;4989347;28;20176;-48
2023/06/25 07:19:59;;;;;;;5.28;4.78;;;25.10;55.50;25.60;101066.00;;;;4989510;28;20243;-49
2023/06/25 07:22:25;;;;;;;5.60;5.10;;;25.10;55.50;25.60;101067.00;;;;4988244;28;20172;-48
2023/06/25 07:24:51;;;;;;;5.70;5.30;;;25.10;55.40;25.60;101072.00;;;;4988331;28;20192;-48
2023/06/25 07:27:16;;;;;;;5.50;5.10;;;25.20;55.40;25.50;101072.00;;;;4988966;28;20188;-48
2023/06/25 07:29:42;;;;;;;5.60;5.07;;;25.20;55.40;25.70;101066.00;;;;4988335;28;20192;-48
2023/06/25 07:32:08;;;;;;;5.30;4.90;;;25.30;55.40;25.70;101071.00;;;;4988677;28;20181;-48
2023/06/25 07:34:34;;;;;;;5.28;4.78;;;25.30;55.50;25.80;101062.00;;;;4990909;28;20201;-49
2023/06/25 07:36:59;;;;;;;5.45;5.05;;;25.30;55.70;25.80;101073.00;;;;4991942;28;20184;-48
2023/06/25 07:39:29;;;;;;;5.70;5.30;;;25.30;55.70;25.80;101063.00;;;;4992981;28;20184;-50
2023/06/25 07:41:55;;;;;;;5.47;5.05;;;25.40;55.80;25.80;101073.00;;;;4992148;28;20665;-48
2023/06/25 07:44:21;;;;;;;5.70;5.20;;;25.30;55.90;25.80;101064.00;;;;5011335;28;20196;-49
2023/06/25 07:46:47;;;;;;;5.72;5.13;;;25.40;55.80;25.80;101075.00;;;;4980281;28;20196;-49
2023/06/25 07:49:12;;;;;;;5.45;5.05;;;25.40;56.10;25.90;101072.00;;;;4994715;28;20204;-49
2023/06/25 07:51:38;;;;;;;5.57;5.07;;;25.40;56.10;25.90;101062.00;;;;4992873;28;20226;-48
2023/06/25 07:54:04;;;;;;;6.15;5.65;;;25.40;55.80;25.90;101066.00;;;;4993611;28;21019;-49
2023/06/25 07:56:30;;;;;;;6.32;5.82;;;25.40;56.10;25.90;101064.00;;;;4992698;28;20176;-49
2023/06/25 07:58:55;;;;;;;5.72;5.22;;;25.50;56.00;25.90;101059.00;;;;5011872;28;20173;-49
2023/06/25 08:01:21;;;;;;;6.07;5.57;;;25.50;56.00;26.00;101057.00;;;;5019664;28;20182;-49
2023/06/25 08:03:47;;;;;;;5.65;5.15;;;25.50;56.80;26.00;101061.00;;;;4993319;28;20247;-49
2023/06/25 08:06:12;;;;;;;5.50;5.10;;;25.50;56.10;26.00;101050.00;;;;4990162;28;20279;-49
2023/06/25 08:08:38;;;;;;;5.63;5.20;;;25.50;56.10;26.00;101056.00;;;;4991779;28;20191;-49
2023/06/25 08:11:05;;;;;;;6.05;5.55;;;25.50;56.00;26.00;101051.00;;;;4991813;28;20164;-49
2023/06/25 08:13:30;;;;;;;5.57;5.18;;;25.50;55.80;26.00;101047.00;;;;4990895;28;20685;-49
2023/06/25 08:15:56;;;;;;;5.82;5.40;;;25.50;55.90;26.00;101045.00;;;;4991880;28;20184;-49
2023/06/25 08:18:22;;;;;;;5.45;5.05;;;25.50;55.90;26.10;101050.00;;;;4991917;28;20176;-48
2023/06/25 08:20:48;;;;;;;5.78;5.28;;;25.50;56.00;26.10;101056.00;;;;4991169;28;20184;-48
2023/06/25 08:23:13;;;;;;;5.80;5.32;;;25.60;56.20;26.10;101052.00;;;;4991015;28;20251;-49
2023/06/25 08:25:39;;;;;;;5.38;4.97;;;25.50;56.00;26.10;101050.00;;;;4991664;28;20255;-49
2023/06/25 08:28:05;;;;;;;5.78;5.28;;;25.60;56.20;26.10;101051.00;;;;4991512;28;20181;-49
2023/06/25 08:30:30;;;;;;;5.63;5.13;;;25.60;56.20;26.20;101048.00;;;;5005671;28;20180;-49
2023/06/25 08:32:56;;;;;;;5.72;5.22;;;25.60;56.20;26.20;101040.00;;;;5006284;28;20176;-49
2023/06/25 08:35:22;;;;;;;6.13;5.63;;;25.60;55.20;26.20;101052.00;;;;5010441;28;20234;-48
2023/06/25 08:37:48;;;;;;;5.53;5.13;;;25.60;54.70;26.20;101041.00;;;;5010994;28;20178;-48
2023/06/25 08:40:13;;;;;;;5.30;4.90;;;25.70;55.10;26.20;101050.00;;;;5011262;28;20184;-49
2023/06/25 08:42:41;;;;;;;5.57;5.10;;;25.60;55.20;26.20;101046.00;;;;5010654;28;20199;-48
2023/06/25 08:45:09;;;;;;;5.70;5.30;;;25.70;55.20;26.20;101038.00;;;;5008605;28;20273;-48
2023/06/25 08:47:38;;;;;;;5.47;5.07;;;25.70;54.80;26.20;101048.00;;;;4973861;28;20172;-48
2023/06/25 08:50:05;;;;;;;5.40;5.00;;;25.70;55.20;26.30;101038.00;;;;4990949;28;20180;-50
2023/06/25 08:52:32;;;;;;;5.45;4.90;;;25.70;54.00;26.30;101049.00;;;;4983010;28;20176;-49
2023/06/25 08:54:57;;;;;;;5.30;4.90;;;25.70;53.30;26.30;101042.00;;;;4990637;28;20196;-48
2023/06/25 08:57:23;;;;;;;5.10;4.70;;;25.80;53.00;26.30;101040.00;;;;4991384;28;20176;-50
2023/06/25 08:59:49;;;;;;;5.57;5.18;;;25.70;52.50;26.30;101043.00;;;;4991491;28;20733;-48
2023/06/25 09:02:15;;;;;;;5.60;5.10;;;25.70;52.50;26.30;101049.00;;;;4990599;28;20176;-49
2023/06/25 09:04:41;;;;;;;5.65;5.10;;;25.80;52.90;26.40;101048.00;;;;4972608;28;20638;-48
2023/06/25 09:07:08;;;;;;;5.53;5.03;;;25.80;52.80;26.40;101039.00;;;;4992558;28;20215;-50
2023/06/25 09:09:33;;;;;;;5.85;5.35;;;25.80;52.80;26.40;101048.00;;;;4994648;28;20176;-50
2023/06/25 09:11:59;;;;;;;5.65;5.07;;;25.80;52.80;26.40;101037.00;;;;4990853;28;20566;-48
2023/06/25 09:14:26;;;;;;;6.00;5.40;;;25.90;52.60;26.40;101034.00;;;;4990362;28;20196;-49
2023/06/25 09:16:51;;;;;;;5.68;5.28;;;25.90;52.30;26.40;101045.00;;;;4990930;28;20169;-48
2023/06/25 09:19:18;;;;;;;5.28;4.88;;;25.90;52.00;26.50;101043.00;;;;4990814;28;20183;-50
2023/06/25 09:21:44;;;;;;;5.47;5.07;;;25.90;52.40;26.50;101031.00;;;;4990561;28;20187;-49
2023/06/25 09:24:20;;;;;;;5.85;5.35;;;25.90;52.30;26.50;101029.00;;;;4990827;28;20192;-49
2023/06/25 09:26:53;;;;;;;5.82;5.40;;;26.00;50.60;26.50;101024.00;;;;4990534;28;20207;-49
2023/06/25 09:29:21;;;;;;;6.70;5.40;;;26.00;50.20;26.50;101024.00;;;;4989817;28;20188;-48
2023/06/25 09:31:48;;;;;;;5.50;4.68;;;26.00;51.00;26.60;101018.00;;;;4990455;28;20246;-49
2023/06/25 09:34:15;;;;;;;7.07;4.75;;;26.00;51.40;26.60;101017.00;;;;4990166;28;20198;-47
2023/06/25 09:36:41;;;;;;;5.43;4.93;;;26.00;51.80;26.60;101017.00;;;;4990718;28;20219;-47
2023/06/25 09:39:09;;;;;;;5.40;4.90;;;26.00;52.40;26.60;101021.00;;;;4990535;28;20176;-47
2023/06/25 09:41:37;;;;;;;5.40;4.97;;;26.00;52.70;26.60;101019.00;;;;4990437;28;20180;-49
2023/06/25 09:44:04;;;;;;;6.78;4.80;;;26.00;53.10;26.60;101010.00;;;;4990098;28;20192;-48
2023/06/25 09:46:35;;;;;;;5.25;4.75;;;26.00;53.30;26.70;101013.00;;;;4990102;28;20200;-48
2023/06/25 09:49:03;;;;;;;5.20;4.80;;;26.00;53.60;26.70;101013.00;;;;4998451;28;20193;-48
2023/06/25 09:52:07;;;;;;;5.03;4.63;;;26.10;54.00;26.70;101003.00;;;;5003308;28;20180;-48
2023/06/25 09:54:33;;;;;;;4.95;4.47;;;26.00;54.20;26.70;101003.00;;;;4977214;28;20264;-46
2023/06/25 09:57:00;;;;;;;4.72;4.32;;;26.10;54.70;26.80;101003.00;;;;4973542;28;20188;-48
2023/06/25 09:59:27;;;;;;;5.22;4.72;;;26.10;54.90;26.80;101002.00;;;;4991115;28;20184;-48
2023/06/25 10:01:53;;;;;;;5.28;4.78;;;26.10;55.00;26.80;101002.00;;;;4990491;28;20184;-48
2023/06/25 10:04:19;;;;;;;5.10;4.60;;;26.10;55.00;26.80;100995.00;;;;4999151;28;20231;-48
2023/06/25 10:06:45;;;;;;;4.70;4.40;;;26.10;55.50;26.80;101004.00;;;;5003977;28;20207;-47
2023/06/25 10:09:11;;;;;;;6.68;4.88;;;26.20;56.00;26.80;100996.00;;;;4989184;28;20515;-48
2023/06/25 10:11:37;;;;;;;5.50;5.10;;;26.10;56.20;26.90;100993.00;;;;4988734;28;20171;-48
2023/06/25 10:14:04;;;;;;;5.20;4.68;;;26.20;56.40;26.90;101001.00;;;;4989496;28;20195;-49
2023/06/25 10:16:34;;;;;;;5.10;4.57;;;26.20;56.60;26.90;100992.00;;;;4998924;28;20211;-47
2023/06/25 10:18:59;;;;;;;8.07;4.60;;;26.20;57.50;26.90;100986.00;;;;4992562;28;20194;-48
2023/06/25 10:21:25;;;;;;;5.47;4.65;;;26.20;57.80;27.00;100982.00;;;;5013885;28;20183;-51
2023/06/25 10:23:59;;;;;;;4.90;4.50;;;26.20;57.90;27.00;100981.00;;;;5019291;28;20179;-47
2023/06/25 10:26:27;;;;;;;4.80;4.40;;;26.30;57.90;27.00;100975.00;;;;5015366;28;20192;-48
2023/06/25 10:28:52;;;;;;;4.97;4.55;;;26.30;57.90;27.00;100975.00;;;;5008208;28;20694;-48
2023/06/25 10:31:18;;;;;;;5.10;4.70;;;26.30;57.60;27.00;100964.00;;;;5008748;28;20175;-48
2023/06/25 10:33:44;;;;;;;4.65;4.35;;;26.30;57.40;27.10;100965.00;;;;5008595;28;20531;-47
2023/06/25 10:36:11;;;;;;;4.75;4.45;;;26.30;57.60;27.10;100974.00;;;;5009061;28;20182;-48
2023/06/25 10:38:37;;;;;;;5.07;4.60;;;26.40;58.30;27.10;100972.00;;;;5009478;28;20179;-47
2023/06/25 10:41:03;;;;;;;4.70;4.30;;;26.30;58.40;27.10;100961.00;;;;5010933;28;20263;-52
2023/06/25 10:43:28;;;;;;;6.70;4.47;;;26.40;58.60;27.20;100954.00;;;;5011010;28;20347;-49